sensor_id;sensor_type;location;lat;lon;timestamp;pressure;altitude;pressure_sealevel;temperature;humidity
56518;BME280;42419;48.760;2.322;2023-02-03T00:00:18;102629.91;;;22.09;33.64
56518;BME280;42419;48.760;2.322;2023-02-03T00:02:44;102637.97;;;22.07;34.01
56518;BME280;42419;48.760;2.322;2023-02-03T00:05:09;102637.06;;;22.07;33.95
56518;BME280;42419;48.760;2.322;2023-02-03T00:07:36;102610.38;;;21.99;33.74
56518;BME280;42419;48.760;2.322;2023-02-03T00:10:03;102623.72;;;22.02;34.01
56518;BME280;42419;48.760;2.322;2023-02-03T00:12:28;102631.72;;;22.05;33.78
56518;BME280;42419;48.760;2.322;2023-02-03T00:14:54;102570.63;;;21.69;33.97
56518;BME280;42419;48.760;2.322;2023-02-03T00:17:19;102635.41;;;22.00;34.21
56518;BME280;42419;48.760;2.322;2023-02-03T00:19:44;102636.19;;;22.05;33.77
56518;BME280;42419;48.760;2.322;2023-02-03T00:22:10;102637.97;;;22.07;33.73
56518;BME280;42419;48.760;2.322;2023-02-03T00:24:35;102631.69;;;22.08;33.58
56518;BME280;42419;48.760;2.322;2023-02-03T00:27:00;102628.13;;;22.08;33.64
56518;BME280;42419;48.760;2.322;2023-02-03T00:29:26;102624.53;;;22.09;33.68
56518;BME280;42419;48.760;2.322;2023-02-03T00:31:52;102624.53;;;22.07;33.67
56518;BME280;42419;48.760;2.322;2023-02-03T00:34:18;102625.38;;;22.11;33.58
56518;BME280;42419;48.760;2.322;2023-02-03T00:36:43;102616.47;;;22.09;33.41
56518;BME280;42419;48.760;2.322;2023-02-03T00:39:12;102626.25;;;22.13;33.20
56518;BME280;42419;48.760;2.322;2023-02-03T00:41:37;102622.69;;;22.11;33.58
56518;BME280;42419;48.760;2.322;2023-02-03T00:44:03;102622.69;;;22.09;33.63
56518;BME280;42419;48.760;2.322;2023-02-03T00:46:28;102618.19;;;22.13;33.40
56518;BME280;42419;48.760;2.322;2023-02-03T00:48:54;102582.78;;;21.91;33.29
56518;BME280;42419;48.760;2.322;2023-02-03T00:51:19;102611.84;;;22.17;33.38
56518;BME280;42419;48.760;2.322;2023-02-03T00:53:46;102591.44;;;22.08;33.34
56518;BME280;42419;48.760;2.322;2023-02-03T00:56:12;102602.13;;;22.10;33.02
56518;BME280;42419;48.760;2.322;2023-02-03T00:58:38;102601.13;;;22.17;33.21
56518;BME280;42419;48.760;2.322;2023-02-03T01:01:04;102604.63;;;22.19;33.17
56518;BME280;42419;48.760;2.322;2023-02-03T01:03:29;102601.97;;;22.19;33.15
56518;BME280;42419;48.760;2.322;2023-02-03T01:05:55;102571.78;;;22.08;33.17
56518;BME280;42419;48.760;2.322;2023-02-03T01:08:20;102593.00;;;22.21;33.05
56518;BME280;42419;48.760;2.322;2023-02-03T01:10:45;102590.31;;;22.20;32.88
56518;BME280;42419;48.760;2.322;2023-02-03T01:13:11;102591.19;;;22.22;33.00
56518;BME280;42419;48.760;2.322;2023-02-03T01:15:36;102580.47;;;22.20;32.49
56518;BME280;42419;48.760;2.322;2023-02-03T01:18:02;102576.97;;;22.17;33.13
56518;BME280;42419;48.760;2.322;2023-02-03T01:20:27;102583.13;;;22.22;33.17
56518;BME280;42419;48.760;2.322;2023-02-03T01:22:52;102567.94;;;22.21;32.94
56518;BME280;42419;48.760;2.322;2023-02-03T01:25:18;102558.16;;;22.18;32.83
56518;BME280;42419;48.760;2.322;2023-02-03T01:27:43;102541.16;;;22.18;32.75
56518;BME280;42419;48.760;2.322;2023-02-03T01:30:09;102549.13;;;22.22;32.73
56518;BME280;42419;48.760;2.322;2023-02-03T01:32:34;102553.63;;;22.22;32.78
56518;BME280;42419;48.760;2.322;2023-02-03T01:35:00;102553.63;;;22.22;32.89
56518;BME280;42419;48.760;2.322;2023-02-03T01:37:25;102540.31;;;22.16;32.69
56518;BME280;42419;48.760;2.322;2023-02-03T01:39:52;102539.44;;;22.15;32.79
56518;BME280;42419;48.760;2.322;2023-02-03T01:42:17;102545.63;;;22.19;32.72
56518;BME280;42419;48.760;2.322;2023-02-03T01:44:50;102538.53;;;22.15;32.66
56518;BME280;42419;48.760;2.322;2023-02-03T01:47:35;102475.63;;;21.85;32.73
56518;BME280;42419;48.760;2.322;2023-02-03T01:50:24;102547.31;;;22.23;32.72
56518;BME280;42419;48.760;2.322;2023-02-03T01:52:56;102535.69;;;22.22;32.49
56518;BME280;42419;48.760;2.322;2023-02-03T01:55:25;102542.91;;;22.22;32.64
56518;BME280;42419;48.760;2.322;2023-02-03T01:57:55;102526.78;;;22.22;32.39
56518;BME280;42419;48.760;2.322;2023-02-03T02:00:21;102521.44;;;22.20;32.50
56518;BME280;42419;48.760;2.322;2023-02-03T02:02:47;102505.41;;;22.17;32.42
56518;BME280;42419;48.760;2.322;2023-02-03T02:05:22;102509.75;;;22.23;32.30
56518;BME280;42419;48.760;2.322;2023-02-03T02:07:49;102511.53;;;22.24;32.44
56518;BME280;42419;48.760;2.322;2023-02-03T02:10:15;102510.66;;;22.23;32.45
56518;BME280;42419;48.760;2.322;2023-02-03T02:12:41;102494.72;;;22.16;32.42
56518;BME280;42419;48.760;2.322;2023-02-03T02:15:07;102515.13;;;22.23;32.45
56518;BME280;42419;48.760;2.322;2023-02-03T02:23:33;102523.16;;;22.23;32.39
56518;BME280;42419;48.760;2.322;2023-02-03T02:34:13;102485.34;;;21.92;32.18
56518;BME280;42419;48.760;2.322;2023-02-03T02:39:36;102525.91;;;22.21;32.16
56518;BME280;42419;48.760;2.322;2023-02-03T02:45:07;102524.97;;;22.22;32.40
56518;BME280;42419;48.760;2.322;2023-02-03T02:47:34;102514.38;;;22.16;31.93
56518;BME280;42419;48.760;2.322;2023-02-03T02:50:10;102525.84;;;22.23;32.17
56518;BME280;42419;48.760;2.322;2023-02-03T02:52:40;102516.91;;;22.24;32.19
56518;BME280;42419;48.760;2.322;2023-02-03T02:55:10;102508.00;;;22.22;32.01
56518;BME280;42419;48.760;2.322;2023-02-03T02:57:38;102493.81;;;22.17;32.17
56518;BME280;42419;48.760;2.322;2023-02-03T03:00:04;102509.72;;;22.26;32.10
56518;BME280;42419;48.760;2.322;2023-02-03T03:02:32;102513.31;;;22.25;32.11
56518;BME280;42419;48.760;2.322;2023-02-03T03:04:59;102508.03;;;22.20;32.03
56518;BME280;42419;48.760;2.322;2023-02-03T03:07:26;102511.50;;;22.25;31.96
56518;BME280;42419;48.760;2.322;2023-02-03T03:10:00;102510.63;;;22.25;32.09
56518;BME280;42419;48.760;2.322;2023-02-03T03:12:30;102519.56;;;22.25;32.18
56518;BME280;42419;48.760;2.322;2023-02-03T03:15:05;102524.94;;;22.25;31.94
56518;BME280;42419;48.760;2.322;2023-02-03T03:17:41;102526.72;;;22.25;32.04
56518;BME280;42419;48.760;2.322;2023-02-03T03:20:11;102521.44;;;22.20;31.89
56518;BME280;42419;48.760;2.322;2023-02-03T03:22:44;102535.69;;;22.24;31.94
56518;BME280;42419;48.760;2.322;2023-02-03T03:25:17;102543.72;;;22.25;31.90
56518;BME280;42419;48.760;2.322;2023-02-03T03:27:48;102531.41;;;22.14;32.03
56518;BME280;42419;48.760;2.322;2023-02-03T03:30:18;102557.06;;;22.28;31.31
56518;BME280;42419;48.760;2.322;2023-02-03T03:32:46;102555.25;;;22.29;31.91
56518;BME280;42419;48.760;2.322;2023-02-03T03:35:12;102542.09;;;22.17;31.75
56518;BME280;42419;48.760;2.322;2023-02-03T03:37:58;102574.06;;;22.27;32.01
56518;BME280;42419;48.760;2.322;2023-02-03T03:40:37;102576.72;;;22.29;31.74
56518;BME280;42419;48.760;2.322;2023-02-03T03:43:23;102560.00;;;22.16;31.78
56518;BME280;42419;48.760;2.322;2023-02-03T03:48:54;102604.53;;;22.25;31.56
56518;BME280;42419;48.760;2.322;2023-02-03T03:53:55;102613.38;;;22.30;31.76
56518;BME280;42419;48.760;2.322;2023-02-03T03:56:37;102601.06;;;22.20;31.87
56518;BME280;42419;48.760;2.322;2023-02-03T03:59:07;102605.44;;;22.25;31.61
56518;BME280;42419;48.760;2.322;2023-02-03T04:01:34;102608.03;;;22.30;31.75
56518;BME280;42419;48.760;2.322;2023-02-03T04:04:02;102599.16;;;22.26;31.56
56518;BME280;42419;48.760;2.322;2023-02-03T04:06:30;102591.91;;;22.30;31.69
56518;BME280;42419;48.760;2.322;2023-02-03T04:08:55;102582.97;;;22.29;31.56
56518;BME280;42419;48.760;2.322;2023-02-03T04:11:20;102570.47;;;22.28;31.69
56518;BME280;42419;48.760;2.322;2023-02-03T04:14:04;102567.78;;;22.30;31.58
56518;BME280;42419;48.760;2.322;2023-02-03T04:16:30;102566.00;;;22.29;31.66
56518;BME280;42419;48.760;2.322;2023-02-03T04:18:56;102571.38;;;22.29;31.57
56518;BME280;42419;48.760;2.322;2023-02-03T04:21:21;102565.09;;;22.30;31.46
56518;BME280;42419;48.760;2.322;2023-02-03T04:23:46;102522.69;;;22.04;31.43
56518;BME280;42419;48.760;2.322;2023-02-03T04:26:12;102565.09;;;22.28;31.46
56518;BME280;42419;48.760;2.322;2023-02-03T04:28:37;102546.41;;;22.25;31.66
56518;BME280;42419;48.760;2.322;2023-02-03T04:31:02;102546.41;;;22.25;31.46
56518;BME280;42419;48.760;2.322;2023-02-03T04:33:28;102541.91;;;22.26;31.44
56518;BME280;42419;48.760;2.322;2023-02-03T04:35:53;102542.75;;;22.28;31.58
56518;BME280;42419;48.760;2.322;2023-02-03T04:38:18;102491.50;;;21.97;31.09
56518;BME280;42419;48.760;2.322;2023-02-03T04:40:45;102531.28;;;22.20;31.57
56518;BME280;42419;48.760;2.322;2023-02-03T04:43:11;102536.66;;;22.20;31.47
56518;BME280;42419;48.760;2.322;2023-02-03T04:45:37;102539.28;;;22.23;31.38
56518;BME280;42419;48.760;2.322;2023-02-03T04:48:02;102545.44;;;22.28;31.58
56518;BME280;42419;48.760;2.322;2023-02-03T04:50:29;102534.88;;;22.19;31.28
56518;BME280;42419;48.760;2.322;2023-02-03T04:52:55;102547.38;;;22.20;31.44
56518;BME280;42419;48.760;2.322;2023-02-03T04:55:23;102551.88;;;22.18;30.77
56518;BME280;42419;48.760;2.322;2023-02-03T04:57:48;102553.47;;;22.28;31.24
56518;BME280;42419;48.760;2.322;2023-02-03T05:00:13;102554.38;;;22.27;31.38
56518;BME280;42419;48.760;2.322;2023-02-03T05:02:39;102531.38;;;22.17;31.11
56518;BME280;42419;48.760;2.322;2023-02-03T05:05:04;102536.50;;;22.27;31.56
56518;BME280;42419;48.760;2.322;2023-02-03T05:07:30;102543.63;;;22.28;31.22
56518;BME280;42419;48.760;2.322;2023-02-03T05:09:55;102542.81;;;22.26;31.34
56518;BME280;42419;48.760;2.322;2023-02-03T05:12:21;102549.91;;;22.27;31.09
56518;BME280;42419;48.760;2.322;2023-02-03T05:14:46;102557.97;;;22.27;31.26
56518;BME280;42419;48.760;2.322;2023-02-03T05:17:11;102577.63;;;22.28;31.27
56518;BME280;42419;48.760;2.322;2023-02-03T05:19:37;102567.00;;;22.23;31.37
56518;BME280;42419;48.760;2.322;2023-02-03T05:22:02;102579.41;;;22.29;31.18
56518;BME280;42419;48.760;2.322;2023-02-03T05:24:27;102561.81;;;22.14;31.39
56518;BME280;42419;48.760;2.322;2023-02-03T05:26:52;102585.69;;;22.28;31.17
56518;BME280;42419;48.760;2.322;2023-02-03T05:29:18;102499.91;;;21.77;30.92
56518;BME280;42419;48.760;2.322;2023-02-03T05:31:43;102591.97;;;22.27;31.18
56518;BME280;42419;48.760;2.322;2023-02-03T05:34:08;102586.59;;;22.27;31.14
56518;BME280;42419;48.760;2.322;2023-02-03T05:36:34;102600.00;;;22.27;31.26
56518;BME280;42419;48.760;2.322;2023-02-03T05:38:59;102597.31;;;22.27;31.36
56518;BME280;42419;48.760;2.322;2023-02-03T05:41:24;102604.47;;;22.28;31.17
56518;BME280;42419;48.760;2.322;2023-02-03T05:44:08;102606.34;;;22.24;31.17
56518;BME280;42419;48.760;2.322;2023-02-03T05:46:33;102600.00;;;22.27;31.04
56518;BME280;42419;48.760;2.322;2023-02-03T05:48:59;102607.22;;;22.26;31.25
56518;BME280;42419;48.760;2.322;2023-02-03T05:51:24;102608.06;;;22.27;31.36
56518;BME280;42419;48.760;2.322;2023-02-03T05:53:49;102582.34;;;22.15;31.04
56518;BME280;42419;48.760;2.322;2023-02-03T05:56:15;102614.38;;;22.26;30.83
56518;BME280;42419;48.760;2.322;2023-02-03T05:58:40;102611.69;;;22.26;31.08
56518;BME280;42419;48.760;2.322;2023-02-03T06:01:05;102610.91;;;22.19;31.33
56518;BME280;42419;48.760;2.322;2023-02-03T06:03:31;102567.47;;;21.99;31.07
56518;BME280;42419;48.760;2.322;2023-02-03T06:05:56;102618.84;;;22.25;30.94
56518;BME280;42419;48.760;2.322;2023-02-03T06:08:23;102619.72;;;22.26;31.11
56518;BME280;42419;48.760;2.322;2023-02-03T06:10:56;102611.69;;;22.24;30.83
56518;BME280;42419;48.760;2.322;2023-02-03T06:13:21;102609.91;;;22.25;30.92
56518;BME280;42419;48.760;2.322;2023-02-03T06:15:47;102609.97;;;22.22;30.94
56518;BME280;42419;48.760;2.322;2023-02-03T06:18:12;102609.03;;;22.23;31.02
56518;BME280;42419;48.760;2.322;2023-02-03T06:20:37;102609.09;;;22.20;30.92
56518;BME280;42419;48.760;2.322;2023-02-03T06:23:03;102600.06;;;22.25;30.98
56518;BME280;42419;48.760;2.322;2023-02-03T06:25:28;102595.59;;;22.24;31.09
56518;BME280;42419;48.760;2.322;2023-02-03T06:27:56;102585.84;;;22.20;31.18
56518;BME280;42419;48.760;2.322;2023-02-03T06:30:21;102591.13;;;22.25;30.82
56518;BME280;42419;48.760;2.322;2023-02-03T06:32:48;102587.56;;;22.23;30.83
56518;BME280;42419;48.760;2.322;2023-02-03T06:35:14;102583.06;;;22.25;30.92
56518;BME280;42419;48.760;2.322;2023-02-03T06:37:39;102592.91;;;22.26;31.02
56518;BME280;42419;48.760;2.322;2023-02-03T06:40:05;102534.34;;;22.00;30.87
56518;BME280;42419;48.760;2.322;2023-02-03T06:42:31;102595.59;;;22.26;30.96
56518;BME280;42419;48.760;2.322;2023-02-03T06:44:57;102586.69;;;22.22;31.03
56518;BME280;42419;48.760;2.322;2023-02-03T06:47:22;102582.28;;;22.18;30.87
56518;BME280;42419;48.760;2.322;2023-02-03T06:49:47;102600.06;;;22.25;31.00
56518;BME280;42419;48.760;2.322;2023-02-03T06:52:13;102606.31;;;22.26;30.73
56518;BME280;42419;48.760;2.322;2023-02-03T06:54:40;102596.47;;;22.26;30.98
56518;BME280;42419;48.760;2.322;2023-02-03T06:57:05;102577.00;;;22.15;30.96
56518;BME280;42419;48.760;2.322;2023-02-03T06:59:31;102588.53;;;22.20;31.00
56518;BME280;42419;48.760;2.322;2023-02-03T07:01:56;102585.75;;;22.26;30.76
56518;BME280;42419;48.760;2.322;2023-02-03T07:04:21;102570.66;;;22.18;30.96
56518;BME280;42419;48.760;2.322;2023-02-03T07:06:47;102591.09;;;22.26;30.88
56518;BME280;42419;48.760;2.322;2023-02-03T07:09:12;102594.66;;;22.27;31.06
56518;BME280;42419;48.760;2.322;2023-02-03T07:11:38;102595.63;;;22.23;30.82
56518;BME280;42419;48.760;2.322;2023-02-03T07:14:03;102614.28;;;22.30;30.87
56518;BME280;42419;48.760;2.322;2023-02-03T07:16:29;102550.72;;;21.85;30.78
56518;BME280;42419;48.760;2.322;2023-02-03T07:18:55;102633.00;;;22.32;30.27
56518;BME280;42419;48.760;2.322;2023-02-03T07:21:20;102622.34;;;22.29;30.86
56518;BME280;42419;48.760;2.322;2023-02-03T07:23:47;102621.34;;;22.34;30.92
56518;BME280;42419;48.760;2.322;2023-02-03T07:26:12;102626.72;;;22.34;30.98
56518;BME280;42419;48.760;2.322;2023-02-03T07:28:38;102608.06;;;22.27;31.11
56518;BME280;42419;48.760;2.322;2023-02-03T07:31:04;102635.59;;;22.38;30.93
56518;BME280;42419;48.760;2.322;2023-02-03T07:33:30;102645.38;;;22.40;30.91
56518;BME280;42419;48.760;2.322;2023-02-03T07:35:57;102639.09;;;22.41;31.01
56518;BME280;42419;48.760;2.322;2023-02-03T07:38:25;102645.34;;;22.44;30.89
56518;BME280;42419;48.760;2.322;2023-02-03T07:40:51;102634.53;;;22.45;31.06
56518;BME280;42419;48.760;2.322;2023-02-03T07:43:17;102631.94;;;22.42;30.84
56518;BME280;42419;48.760;2.322;2023-02-03T07:45:43;102630.13;;;22.44;30.49
56518;BME280;42419;48.760;2.322;2023-02-03T07:48:09;102628.28;;;22.45;31.18
56518;BME280;42419;48.760;2.322;2023-02-03T07:50:34;102615.75;;;22.45;31.13
56518;BME280;42419;48.760;2.322;2023-02-03T07:53:00;102628.28;;;22.46;31.17
56518;BME280;42419;48.760;2.322;2023-02-03T07:55:25;102617.66;;;22.40;31.19
56518;BME280;42419;48.760;2.322;2023-02-03T07:57:55;102635.41;;;22.49;31.38
56518;BME280;42419;48.760;2.322;2023-02-03T08:00:21;102640.78;;;22.49;31.32
56518;BME280;42419;48.760;2.322;2023-02-03T08:02:47;102630.94;;;22.48;31.22
56518;BME280;42419;48.760;2.322;2023-02-03T08:05:12;102637.13;;;22.51;31.39
56518;BME280;42419;48.760;2.322;2023-02-03T08:07:39;102623.88;;;22.42;31.49
56518;BME280;42419;48.760;2.322;2023-02-03T08:10:05;102642.50;;;22.51;31.25
56518;BME280;42419;48.760;2.322;2023-02-03T08:12:31;102637.16;;;22.50;31.52
56518;BME280;42419;48.760;2.322;2023-02-03T08:14:56;102634.59;;;22.44;31.27
56518;BME280;42419;48.760;2.322;2023-02-03T08:17:21;102630.13;;;22.42;31.18
56518;BME280;42419;48.760;2.322;2023-02-03T08:19:47;102649.63;;;22.52;31.20
56518;BME280;42419;48.760;2.322;2023-02-03T08:22:12;102623.16;;;22.32;31.27
56518;BME280;42419;48.760;2.322;2023-02-03T08:24:44;102654.13;;;22.52;31.30
56518;BME280;42419;48.760;2.322;2023-02-03T08:27:15;102656.81;;;22.52;31.06
56518;BME280;42419;48.760;2.322;2023-02-03T08:29:40;102649.00;;;22.39;31.37
56518;BME280;42419;48.760;2.322;2023-02-03T08:32:10;102662.19;;;22.52;31.17
56518;BME280;42419;48.760;2.322;2023-02-03T08:34:36;102651.63;;;22.41;31.28
56518;BME280;42419;48.760;2.322;2023-02-03T08:37:01;102662.19;;;22.50;31.18
56518;BME280;42419;48.760;2.322;2023-02-03T08:39:27;102658.66;;;22.48;31.19
56518;BME280;42419;48.760;2.322;2023-02-03T08:41:52;102659.56;;;22.47;31.23
56518;BME280;42419;48.760;2.322;2023-02-03T08:44:17;102666.75;;;22.47;31.35
56518;BME280;42419;48.760;2.322;2023-02-03T08:46:44;102673.00;;;22.47;31.05
56518;BME280;42419;48.760;2.322;2023-02-03T08:49:10;102679.28;;;22.46;31.30
56518;BME280;42419;48.760;2.322;2023-02-03T08:51:36;102681.13;;;22.42;31.15
56518;BME280;42419;48.760;2.322;2023-02-03T08:54:01;102689.25;;;22.39;31.12
56518;BME280;42419;48.760;2.322;2023-02-03T08:56:27;102689.19;;;22.44;31.30
56518;BME280;42419;48.760;2.322;2023-02-03T08:58:53;102682.19;;;22.34;31.03
56518;BME280;42419;48.760;2.322;2023-02-03T09:01:19;102693.66;;;22.44;31.10
56518;BME280;42419;48.760;2.322;2023-02-03T09:03:45;102691.88;;;22.42;31.26
56518;BME280;42419;48.760;2.322;2023-02-03T09:06:11;102675.94;;;22.32;31.05
56518;BME280;42419;48.760;2.322;2023-02-03T09:08:43;102692.78;;;22.41;31.48
56518;BME280;42419;48.760;2.322;2023-02-03T09:11:12;102681.25;;;22.36;31.09
56518;BME280;42419;48.760;2.322;2023-02-03T09:13:38;102679.44;;;22.37;31.10
56518;BME280;42419;48.760;2.322;2023-02-03T09:16:07;102687.47;;;22.38;31.08
56518;BME280;42419;48.760;2.322;2023-02-03T09:18:33;102690.13;;;22.40;31.24
56518;BME280;42419;48.760;2.322;2023-02-03T09:21:03;102693.69;;;22.40;31.12
56518;BME280;42419;48.760;2.322;2023-02-03T09:23:29;102691.94;;;22.39;31.43
56518;BME280;42419;48.760;2.322;2023-02-03T09:25:54;102689.25;;;22.39;31.12
56518;BME280;42419;48.760;2.322;2023-02-03T09:28:20;102692.84;;;22.38;31.08
56518;BME280;42419;48.760;2.322;2023-02-03T09:30:45;102681.38;;;22.29;30.97
56518;BME280;42419;48.760;2.322;2023-02-03T09:33:11;102694.72;;;22.35;31.23
56518;BME280;42419;48.760;2.322;2023-02-03T09:35:36;102713.38;;;22.41;31.43
56518;BME280;42419;48.760;2.322;2023-02-03T09:38:02;102708.91;;;22.40;31.08
56518;BME280;42419;48.760;2.322;2023-02-03T09:40:32;102706.22;;;22.40;31.45
56518;BME280;42419;48.760;2.322;2023-02-03T09:45:42;102707.09;;;22.40;31.29
56518;BME280;42419;48.760;2.322;2023-02-03T09:48:17;102717.81;;;22.44;31.27
56518;BME280;42419;48.760;2.322;2023-02-03T09:50:45;102715.06;;;22.45;31.30
56518;BME280;42419;48.760;2.322;2023-02-03T09:53:22;102718.69;;;22.44;31.47
56518;BME280;42419;48.760;2.322;2023-02-03T09:55:51;102728.47;;;22.47;31.43
56518;BME280;42419;48.760;2.322;2023-02-03T09:58:18;102725.81;;;22.47;31.59
56518;BME280;42419;48.760;2.322;2023-02-03T10:00:49;102720.34;;;22.51;30.84
56518;BME280;42419;48.760;2.322;2023-02-03T10:03:27;102724.78;;;22.54;32.12
56518;BME280;42419;48.760;2.322;2023-02-03T10:08:58;102711.25;;;22.61;33.27
56518;BME280;42419;48.760;2.322;2023-02-03T10:18:56;102721.66;;;22.78;35.34
56518;BME280;42419;48.760;2.322;2023-02-03T10:21:40;102713.53;;;22.81;35.43
56518;BME280;42419;48.760;2.322;2023-02-03T10:24:15;102724.16;;;22.89;35.59
56518;BME280;42419;48.760;2.322;2023-02-03T10:26:43;102719.75;;;22.84;35.62
56518;BME280;42419;48.760;2.322;2023-02-03T10:29:20;102726.16;;;22.76;33.52
56518;BME280;42419;48.760;2.322;2023-02-03T10:31:48;102743.63;;;22.49;31.91
56518;BME280;42419;48.760;2.322;2023-02-03T10:34:15;102732.97;;;21.94;31.19
56518;BME280;42419;48.760;2.322;2023-02-03T10:37:07;102735.50;;;21.37;30.95
56518;BME280;42419;48.760;2.322;2023-02-03T10:39:44;102746.97;;;20.72;31.27
56518;BME280;42419;48.760;2.322;2023-02-03T10:42:11;102733.25;;;20.06;31.80
56518;BME280;42419;48.760;2.322;2023-02-03T10:44:40;102688.09;;;19.62;32.18
56518;BME280;42419;48.760;2.322;2023-02-03T10:47:23;102748.75;;;19.42;32.94
56518;BME280;42419;48.760;2.322;2023-02-03T10:49:50;102748.91;;;19.07;33.18
56518;BME280;42419;48.760;2.322;2023-02-03T10:52:26;102727.63;;;18.68;33.67
56518;BME280;42419;48.760;2.322;2023-02-03T10:54:52;102756.97;;;18.62;34.37
56518;BME280;42419;48.760;2.322;2023-02-03T10:57:17;102723.22;;;18.38;34.28
56518;BME280;42419;48.760;2.322;2023-02-03T10:59:45;102746.31;;;18.43;34.79
56518;BME280;42419;48.760;2.322;2023-02-03T11:02:27;102750.75;;;18.43;35.04
56518;BME280;42419;48.760;2.322;2023-02-03T11:05:25;102683.19;;;17.86;35.44
56518;BME280;42419;48.760;2.322;2023-02-03T11:07:51;102736.50;;;18.02;35.72
56518;BME280;42419;48.760;2.322;2023-02-03T11:10:43;102740.91;;;17.80;35.18
56518;BME280;42419;48.760;2.322;2023-02-03T11:18:45;102735.44;;;17.36;36.79
56518;BME280;42419;48.760;2.322;2023-02-03T11:21:25;102738.03;;;17.24;36.40
56518;BME280;42419;48.760;2.322;2023-02-03T11:23:54;102732.69;;;17.16;36.63
56518;BME280;42419;48.760;2.322;2023-02-03T11:26:32;102703.31;;;16.98;37.35
56518;BME280;42419;48.760;2.322;2023-02-03T11:29:00;102702.41;;;16.96;37.23
56518;BME280;42419;48.760;2.322;2023-02-03T11:31:28;102738.88;;;17.18;37.63
56518;BME280;42419;48.760;2.322;2023-02-03T11:34:05;102726.50;;;17.28;37.72
56518;BME280;42419;48.760;2.322;2023-02-03T11:36:35;102720.38;;;17.41;37.63
56518;BME280;42419;48.760;2.322;2023-02-03T11:39:27;102710.66;;;17.44;37.55
56518;BME280;42419;48.760;2.322;2023-02-03T11:41:53;102715.06;;;17.42;37.69
56518;BME280;42419;48.760;2.322;2023-02-03T11:44:24;102717.69;;;17.33;37.79
56518;BME280;42419;48.760;2.322;2023-02-03T11:47:11;102714.06;;;17.18;37.69
56518;BME280;42419;48.760;2.322;2023-02-03T11:50:04;102729.06;;;17.05;37.70
56518;BME280;42419;48.760;2.322;2023-02-03T11:52:44;102724.56;;;16.90;37.92
56518;BME280;42419;48.760;2.322;2023-02-03T11:55:29;102727.19;;;16.81;37.99
56518;BME280;42419;48.760;2.322;2023-02-03T12:03:56;102718.13;;;16.56;38.93
56518;BME280;42419;48.760;2.322;2023-02-03T12:07:03;102712.81;;;16.53;39.38
56518;BME280;42419;48.760;2.322;2023-02-03T12:12:36;102707.50;;;16.53;38.68
56518;BME280;42419;48.760;2.322;2023-02-03T12:21:04;102695.16;;;16.63;39.23
56518;BME280;42419;48.760;2.322;2023-02-03T12:23:44;102681.88;;;16.69;39.40
56518;BME280;42419;48.760;2.322;2023-02-03T12:26:19;102695.22;;;16.77;39.11
56518;BME280;42419;48.760;2.322;2023-02-03T12:29:05;102679.22;;;16.69;39.00
56518;BME280;42419;48.760;2.322;2023-02-03T12:31:39;102687.25;;;16.80;39.06
56518;BME280;42419;48.760;2.322;2023-02-03T12:36:54;102682.03;;;16.98;38.96
56518;BME280;42419;48.760;2.322;2023-02-03T12:39:38;102656.34;;;17.03;38.80
56518;BME280;42419;48.760;2.322;2023-02-03T12:42:21;102665.25;;;17.20;39.17
56518;BME280;42419;48.760;2.322;2023-02-03T12:44:53;102660.91;;;17.30;38.88
56518;BME280;42419;48.760;2.322;2023-02-03T12:49:58;102672.47;;;17.51;38.56
56518;BME280;42419;48.760;2.322;2023-02-03T12:58:05;102647.66;;;17.83;38.40
56518;BME280;42419;48.760;2.322;2023-02-03T13:01:00;102575.75;;;17.52;38.46
56518;BME280;42419;48.760;2.322;2023-02-03T13:03:34;102652.97;;;17.98;38.36
56518;BME280;42419;48.760;2.322;2023-02-03T13:08:43;102645.88;;;18.12;38.81
56518;BME280;42419;48.760;2.322;2023-02-03T13:14:02;102617.50;;;18.16;39.05
56518;BME280;42419;48.760;2.322;2023-02-03T13:16:32;102617.50;;;18.20;39.31
56518;BME280;42419;48.760;2.322;2023-02-03T13:19:05;102616.56;;;18.27;39.33
56518;BME280;42419;48.760;2.322;2023-02-03T13:21:34;102609.44;;;18.31;39.31
56518;BME280;42419;48.760;2.322;2023-02-03T13:24:02;102622.75;;;18.34;39.50
56518;BME280;42419;48.760;2.322;2023-02-03T13:29:37;102634.34;;;18.37;39.61
56518;BME280;42419;48.760;2.322;2023-02-03T13:38:10;102586.34;;;18.37;39.99
56518;BME280;42419;48.760;2.322;2023-02-03T13:43:12;102613.88;;;18.42;40.11
56518;BME280;42419;48.760;2.322;2023-02-03T13:45:42;102630.72;;;18.48;39.92
56518;BME280;42419;48.760;2.322;2023-02-03T13:48:20;102620.97;;;18.43;39.98
56518;BME280;42419;48.760;2.322;2023-02-03T13:53:46;102617.41;;;18.48;39.70
56518;BME280;42419;48.760;2.322;2023-02-03T13:56:30;102599.63;;;18.48;39.87
56518;BME280;42419;48.760;2.322;2023-02-03T13:59:11;102614.72;;;18.52;40.01
56518;BME280;42419;48.760;2.322;2023-02-03T14:01:49;102595.22;;;18.36;39.96
56518;BME280;42419;48.760;2.322;2023-02-03T14:09:34;102596.06;;;18.43;39.82
56518;BME280;42419;48.760;2.322;2023-02-03T14:14:58;102618.25;;;18.59;39.60
56518;BME280;42419;48.760;2.322;2023-02-03T14:20:00;102628.03;;;18.61;39.67
56518;BME280;42419;48.760;2.322;2023-02-03T14:22:27;102632.47;;;18.62;40.05
56518;BME280;42419;48.760;2.322;2023-02-03T14:24:54;102590.72;;;18.48;39.83
56518;BME280;42419;48.760;2.322;2023-02-03T14:27:23;102619.13;;;18.65;39.97
56518;BME280;42419;48.760;2.322;2023-02-03T14:30:21;102618.22;;;18.66;39.83
56518;BME280;42419;48.760;2.322;2023-02-03T14:32:53;102589.81;;;18.53;40.01
56518;BME280;42419;48.760;2.322;2023-02-03T14:35:21;102605.78;;;18.68;39.90
56518;BME280;42419;48.760;2.322;2023-02-03T14:37:51;102612.00;;;18.69;39.95
56518;BME280;42419;48.760;2.322;2023-02-03T14:48:50;102607.56;;;18.74;40.41